Medford, MN (55049)

1:47 AM CST on December 09, 2016 (GMT -0600)
Liinhaven | | Change Station

Elev 1198 ft 44.11 °N, 93.21 °W | Updated 2 seconds ago

Snow
Snow
12.0 °F
Feels Like -1 °F
N
10.0
Wind Variable Wind from WNW

Today
High -- | Low -- °F
--% Chance of Precip.
Yesterday
High -- | Low -- °F
Precip. -- in
Pressure 30.52 in
Visibility 7.0 miles
Clouds Overcast 1300 ft
Windchill -1 °F
Dew Point 10 °F
Humidity 93%
Rainfall 0.00 in
Snow Depth Not available.
7:36 AM 4:34 PM
Waxing Gibbous, 71% visible
METAR KOWA 090735Z AUTO 28006KT 7SM -SN OVC013 M10/M13 A3052 RMK AO2
Pressure 30.52 in
Visibility 7.0 miles
Clouds Overcast 1300 ft
Windchill -1 °F
Dew Point 10 °F
Humidity 93%
Rainfall 0.00 in
Snow Depth Not available.
7:36 AM 4:34 PM
Waxing Gibbous, 71% visible
METAR KOWA 090735Z AUTO 28006KT 7SM -SN OVC013 M10/M13 A3052 RMK AO2

10-Day Weather Forecast

Almanac

Astronomy

Dec. 09, 2016 Rise Set
Actual Time
Civil Twilight
Nautical Twilight
Astronomical Twilight
Moon
Length of Visible Light
Length of Day
Tomorrow will be .
, % of the Moon is Illuminated

Today's Extremes

State Highs State Lows

Community

WunderPhotos

Upload Photos

1,956,374 photos uploaded!

WunderBlog® & News

Nearby

Air Quality

  Air Quality AQ Index Pollutant
Not available.

Snow Depth

Station Depth Elevation

Earthquake Activity

City Distance Mag. Time & Date
Minimum magnitude displayed is 2.5.

Coastal Water Temperatures

Place Temperature

Stations

Nearby Weather Stations

Station Location Temp. Windchill Dew Point Humidity Wind Precip. Elev Updated Type
                   

Watches & Warnings

There are currently no watches in effect.